createdAt,value
2022-11-10T00:01:14.366Z,1.23
2022-11-10T00:04:02.115Z,2.20
2022-11-10T00:06:50.049Z,1.60
2022-11-10T00:09:37.900Z,1.97
2022-11-10T00:12:25.941Z,1.80
2022-11-10T00:15:32.414Z,1.90
2022-11-10T00:18:19.905Z,1.57
2022-11-10T00:21:09.594Z,2.07
2022-11-10T00:23:57.356Z,1.60
2022-11-10T00:26:45.143Z,1.53
2022-11-10T00:29:34.345Z,1.53
2022-11-10T00:32:22.937Z,1.43
2022-11-10T00:35:11.856Z,1.30
2022-11-10T00:37:59.242Z,1.50
2022-11-10T00:40:46.750Z,1.90
2022-11-10T00:43:34.947Z,1.63
2022-11-10T00:46:22.715Z,1.17
2022-11-10T00:49:11.655Z,1.40
2022-11-10T00:51:59.262Z,1.23
2022-11-10T00:54:46.824Z,2.80
2022-11-10T00:57:34.477Z,2.23
2022-11-10T01:00:22.346Z,1.53
2022-11-10T01:03:13.769Z,2.00
2022-11-10T01:06:06.881Z,1.70
2022-11-10T01:08:54.454Z,1.50
2022-11-10T01:11:41.701Z,1.83
2022-11-10T01:14:29.002Z,1.43
2022-11-10T01:17:16.481Z,1.50
2022-11-10T01:20:04.448Z,1.70
2022-11-10T01:22:53.377Z,1.80
2022-11-10T01:25:40.788Z,1.30
2022-11-10T01:28:28.922Z,2.10
2022-11-10T01:31:21.539Z,2.33
2022-11-10T01:34:09.155Z,1.57
2022-11-10T01:36:56.891Z,2.10
2022-11-10T01:39:46.369Z,2.13
2022-11-10T01:42:46.910Z,1.80
2022-11-10T01:45:49.938Z,1.53
2022-11-10T01:48:42.284Z,1.70
2022-11-10T01:51:39.469Z,2.00
2022-11-10T01:54:30.594Z,1.50
2022-11-10T01:57:19.687Z,1.73
2022-11-10T02:00:08.361Z,2.33
2022-11-10T02:03:02.300Z,1.90
2022-11-10T02:05:51.826Z,1.50
2022-11-10T02:08:39.339Z,1.73
2022-11-10T02:11:27.586Z,2.23
2022-11-10T02:14:17.838Z,1.63
2022-11-10T02:17:05.374Z,1.50
2022-11-10T02:19:53.779Z,1.70
2022-11-10T02:22:42.313Z,2.80
2022-11-10T02:25:33.678Z,1.63
2022-11-10T02:28:21.034Z,1.87
2022-11-10T02:31:09.720Z,2.80
2022-11-10T02:33:57.185Z,1.73
2022-11-10T02:36:44.370Z,1.63
2022-11-10T02:39:32.943Z,2.80
2022-11-10T02:42:20.720Z,3.23
2022-11-10T02:45:09.415Z,2.43
2022-11-10T02:47:56.735Z,2.80
2022-11-10T02:50:44.463Z,2.17
2022-11-10T02:53:32.083Z,1.43
2022-11-10T02:56:20.715Z,1.87
2022-11-10T02:59:08.126Z,1.70
2022-11-10T03:01:55.718Z,1.67
2022-11-10T03:04:43.637Z,1.50
2022-11-10T03:07:31.095Z,2.57
2022-11-10T03:10:18.470Z,1.77
2022-11-10T03:13:07.203Z,2.50
2022-11-10T03:15:55.092Z,1.90
2022-11-10T03:18:42.280Z,1.37
2022-11-10T03:21:29.844Z,1.90
2022-11-10T03:24:17.212Z,2.17
2022-11-10T03:27:04.592Z,1.20
2022-11-10T03:29:53.221Z,2.50
2022-11-10T03:32:40.454Z,1.40
2022-11-10T03:35:28.186Z,1.40
2022-11-10T03:38:15.470Z,2.00
2022-11-10T03:41:20.049Z,1.97
2022-11-10T03:44:08.337Z,2.77
2022-11-10T03:46:56.795Z,1.73
2022-11-10T03:49:43.722Z,2.00
2022-11-10T03:52:30.936Z,2.10
2022-11-10T03:55:21.018Z,2.50
2022-11-10T03:58:08.291Z,2.33
2022-11-10T04:00:55.876Z,2.10
2022-11-10T04:03:48.814Z,2.00
2022-11-10T04:07:01.697Z,2.23
2022-11-10T04:09:48.794Z,1.83
2022-11-10T04:12:54.045Z,2.33
2022-11-10T04:15:44.206Z,3.00
2022-11-10T04:18:32.134Z,2.20
2022-11-10T04:21:20.810Z,2.20
2022-11-10T04:24:09.150Z,2.20
2022-11-10T04:26:56.288Z,1.80
2022-11-10T04:29:43.118Z,2.17
2022-11-10T04:32:30.394Z,2.20
2022-11-10T04:35:20.118Z,2.80
2022-11-10T04:38:08.714Z,2.77
2022-11-10T04:40:55.966Z,2.03
2022-11-10T04:43:44.114Z,2.20
2022-11-10T04:46:33.481Z,2.33
2022-11-10T04:49:20.734Z,4.37
2022-11-10T04:52:08.021Z,4.03
2022-11-10T04:54:57.159Z,2.80
2022-11-10T04:57:44.709Z,2.80
2022-11-10T05:00:31.940Z,2.60
2022-11-10T05:03:19.467Z,2.40
2022-11-10T05:06:07.433Z,3.00
2022-11-10T05:08:54.751Z,3.10
2022-11-10T05:11:43.024Z,3.93
2022-11-10T05:14:30.347Z,3.27
2022-11-10T05:17:17.528Z,2.53
2022-11-10T05:20:05.652Z,2.53
2022-11-10T05:23:11.773Z,2.90
2022-11-10T05:26:00.677Z,3.63
2022-11-10T05:28:49.546Z,3.37
2022-11-10T05:31:36.767Z,3.67
2022-11-10T05:34:23.625Z,3.27
2022-11-10T05:37:11.049Z,4.43
2022-11-10T05:39:58.448Z,4.23
2022-11-10T05:42:46.178Z,3.40
2022-11-10T05:45:34.404Z,4.83
2022-11-10T05:48:21.525Z,3.80
2022-11-10T05:51:08.649Z,3.50
2022-11-10T05:53:56.436Z,3.23
2022-11-10T05:56:46.901Z,4.87
2022-11-10T05:59:34.159Z,2.70
2022-11-10T06:02:23.001Z,3.07
2022-11-10T06:05:11.249Z,3.20
2022-11-10T06:07:58.947Z,5.60
2022-11-10T06:10:46.290Z,2.80
2022-11-10T06:13:37.733Z,4.43
2022-11-10T06:16:27.922Z,3.30
2022-11-10T06:19:17.264Z,3.97
2022-11-10T06:22:07.845Z,4.93
2022-11-10T06:24:55.485Z,4.00
2022-11-10T06:27:45.892Z,3.90
2022-11-10T06:30:36.205Z,3.87
2022-11-10T06:33:24.102Z,5.63
2022-11-10T06:36:13.061Z,3.13
2022-11-10T06:39:09.130Z,3.80
2022-11-10T06:41:56.750Z,5.33
2022-11-10T06:44:48.310Z,3.50
2022-11-10T06:47:37.152Z,5.30
2022-11-10T06:50:26.891Z,4.97
2022-11-10T06:53:22.923Z,3.13
2022-11-10T06:56:13.469Z,4.30
2022-11-10T06:59:01.715Z,4.27
2022-11-10T07:01:53.107Z,3.13
2022-11-10T07:04:40.387Z,4.00
2022-11-10T07:07:27.724Z,4.00
2022-11-10T07:10:16.712Z,3.70
2022-11-10T07:13:06.140Z,2.97
2022-11-10T07:15:53.549Z,3.80
2022-11-10T07:18:40.472Z,4.67
2022-11-10T07:21:27.593Z,3.40
2022-11-10T07:24:14.796Z,3.20
2022-11-10T07:27:03.510Z,3.50
2022-11-10T07:29:50.962Z,2.83
2022-11-10T07:32:38.166Z,3.60
2022-11-10T07:35:25.004Z,4.00
2022-11-10T07:38:14.822Z,4.30
2022-11-10T07:41:02.516Z,3.10
2022-11-10T07:43:51.514Z,3.93
2022-11-10T07:46:38.842Z,3.93
2022-11-10T07:49:25.967Z,4.90
2022-11-10T07:52:13.552Z,3.73
2022-11-10T07:55:00.784Z,4.03
2022-11-10T07:57:47.744Z,3.93
2022-11-10T08:00:38.923Z,4.00
2022-11-10T08:03:26.264Z,3.87
2022-11-10T08:06:13.853Z,4.00
2022-11-10T08:09:01.539Z,5.27
2022-11-10T08:11:48.983Z,4.50
2022-11-10T08:14:36.121Z,3.00
2022-11-10T08:17:24.322Z,3.83
2022-11-10T08:20:12.701Z,4.40
2022-11-10T08:23:01.500Z,3.10
2022-11-10T08:25:52.958Z,3.60
2022-11-10T08:28:40.104Z,5.10
2022-11-10T08:31:27.530Z,5.23
2022-11-10T08:34:15.895Z,4.80
2022-11-10T08:37:03.200Z,4.03
2022-11-10T08:39:50.183Z,5.10
2022-11-10T08:42:37.060Z,4.20
2022-11-10T08:45:23.922Z,4.80
2022-11-10T08:48:16.347Z,4.97
2022-11-10T08:51:04.868Z,3.40
2022-11-10T08:53:51.755Z,4.33
2022-11-10T08:56:38.896Z,4.00
2022-11-10T08:59:26.022Z,4.40
2022-11-10T09:02:13.343Z,4.30
2022-11-10T09:05:00.493Z,5.30
2022-11-10T09:07:51.489Z,3.70
2022-11-10T09:10:41.798Z,4.80
2022-11-10T09:13:30.598Z,3.93
2022-11-10T09:16:18.225Z,4.00
2022-11-10T09:19:05.632Z,3.60
2022-11-10T09:21:52.854Z,4.73
2022-11-10T09:24:41.400Z,3.60
2022-11-10T09:27:28.788Z,3.23
2022-11-10T09:30:18.259Z,4.80
2022-11-10T09:33:06.320Z,4.17
2022-11-10T09:35:58.909Z,4.70
2022-11-10T09:38:48.266Z,3.57
2022-11-10T09:41:42.721Z,4.07
2022-11-10T09:44:35.468Z,6.53
2022-11-10T09:47:56.227Z,4.07
2022-11-10T09:50:52.457Z,4.17
2022-11-10T09:53:50.125Z,3.87
2022-11-10T09:56:40.979Z,4.50
2022-11-10T09:59:32.352Z,3.60
2022-11-10T10:02:31.485Z,4.90
2022-11-10T10:06:05.041Z,3.83
2022-11-10T10:09:12.750Z,3.30
2022-11-10T10:12:20.601Z,3.57
2022-11-10T10:15:33.944Z,4.20
2022-11-10T10:18:48.612Z,4.30
2022-11-10T10:22:05.918Z,4.93
2022-11-10T10:24:58.592Z,5.27
2022-11-10T10:27:59.315Z,3.83
2022-11-10T10:30:47.765Z,3.77
2022-11-10T10:33:37.163Z,3.90
2022-11-10T10:36:28.617Z,6.33
2022-11-10T10:39:21.511Z,5.00
2022-11-10T10:42:24.241Z,4.13
2022-11-10T10:45:23.536Z,4.70
2022-11-10T10:48:27.761Z,4.77
2022-11-10T10:51:31.789Z,6.37
2022-11-10T10:54:28.617Z,3.73
2022-11-10T10:57:24.184Z,3.90
2022-11-10T11:00:23.694Z,4.67
2022-11-10T11:03:23.096Z,3.33
2022-11-10T11:06:22.143Z,3.93
2022-11-10T11:09:29.486Z,3.23
2022-11-10T11:12:31.487Z,3.13
2022-11-10T11:15:28.420Z,4.00
2022-11-10T11:18:18.463Z,4.30
2022-11-10T11:21:30.005Z,2.77
2022-11-10T11:24:26.304Z,3.43
2022-11-10T11:27:25.125Z,4.03
2022-11-10T11:30:17.696Z,3.30
2022-11-10T11:33:39.501Z,3.80
2022-11-10T11:36:41.851Z,3.37
2022-11-10T11:39:45.786Z,3.40
2022-11-10T11:42:49.173Z,3.67
2022-11-10T11:45:47.649Z,3.10
2022-11-10T11:48:52.759Z,3.67
2022-11-10T11:51:47.073Z,3.00
2022-11-10T11:54:47.005Z,3.60
2022-11-10T11:57:46.294Z,2.97
2022-11-10T12:00:46.634Z,2.87
2022-11-10T12:04:12.146Z,3.47
2022-11-10T12:07:12.543Z,3.80
2022-11-10T12:10:16.643Z,3.53
2022-11-10T12:13:31.773Z,3.80
2022-11-10T12:16:24.946Z,2.43
2022-11-10T12:19:36.674Z,3.20
2022-11-10T12:22:38.127Z,2.07
2022-11-10T12:25:32.368Z,2.73
2022-11-10T12:28:27.191Z,2.80
2022-11-10T12:31:20.730Z,2.80
2022-11-10T12:34:16.079Z,3.93
2022-11-10T12:37:10.976Z,2.23
2022-11-10T12:40:04.001Z,3.00
2022-11-10T12:42:57.260Z,2.67
2022-11-10T12:45:48.029Z,2.37
2022-11-10T12:48:44.103Z,3.20
2022-11-10T12:51:37.235Z,2.33
2022-11-10T12:54:29.432Z,2.10
2022-11-10T12:57:20.916Z,4.00
2022-11-10T13:00:27.815Z,2.53
2022-11-10T13:03:25.548Z,2.37
2022-11-10T13:06:28.475Z,1.93
2022-11-10T13:09:30.547Z,1.80
2022-11-10T13:12:20.555Z,2.10
2022-11-10T13:15:46.657Z,2.50
2022-11-10T13:18:57.966Z,3.20
2022-11-10T13:22:29.686Z,2.60
2022-11-10T13:25:54.491Z,1.50
2022-11-10T13:29:03.757Z,1.83
2022-11-10T13:31:54.548Z,2.80
2022-11-10T13:34:42.582Z,2.30
2022-11-10T13:37:50.866Z,2.70
2022-11-10T13:40:41.051Z,2.33
2022-11-10T13:43:30.237Z,2.30
2022-11-10T13:46:18.451Z,2.90
2022-11-10T13:49:39.072Z,2.10
2022-11-10T13:52:43.243Z,2.83
2022-11-10T13:55:52.149Z,2.40
2022-11-10T13:58:45.887Z,2.83
2022-11-10T14:01:33.925Z,3.47
2022-11-10T14:04:43.003Z,2.60
2022-11-10T14:07:36.295Z,2.17
2022-11-10T14:10:39.921Z,1.70
2022-11-10T14:13:35.499Z,2.13
2022-11-10T14:16:27.792Z,1.80
2022-11-10T14:19:33.344Z,2.43
2022-11-10T14:22:28.431Z,3.00
2022-11-10T14:25:23.023Z,2.90
2022-11-10T14:28:27.722Z,2.00
2022-11-10T14:31:21.251Z,2.70
2022-11-10T14:34:16.603Z,2.33
2022-11-10T14:37:05.478Z,2.80
2022-11-10T14:39:56.163Z,5.27
2022-11-10T14:42:46.121Z,2.73
2022-11-10T14:45:33.415Z,2.30
2022-11-10T14:48:23.867Z,2.80
2022-11-10T14:51:16.739Z,3.63
2022-11-10T14:54:04.777Z,3.17
2022-11-10T14:56:53.114Z,2.00
2022-11-10T14:59:41.215Z,2.70
2022-11-10T15:02:28.981Z,2.03
2022-11-10T15:05:17.765Z,2.43
2022-11-10T15:08:07.484Z,3.50
2022-11-10T15:10:56.500Z,4.03
2022-11-10T15:13:43.717Z,2.70
2022-11-10T15:16:32.992Z,2.67
2022-11-10T15:19:30.954Z,1.93
2022-11-10T15:22:22.062Z,2.83
2022-11-10T15:25:18.794Z,2.87
2022-11-10T15:28:24.365Z,2.70
2022-11-10T15:31:22.435Z,2.43
2022-11-10T15:34:41.767Z,3.27
2022-11-10T15:37:31.704Z,2.50
2022-11-10T15:40:44.038Z,2.90
2022-11-10T15:43:31.472Z,4.33
2022-11-10T15:46:23.250Z,2.67
2022-11-10T15:49:20.531Z,2.80
2022-11-10T15:52:14.967Z,3.93
2022-11-10T15:55:02.134Z,2.73
2022-11-10T15:57:50.897Z,3.17
2022-11-10T16:00:38.782Z,3.43
2022-11-10T16:03:27.756Z,4.03
2022-11-10T16:06:18.728Z,3.57
2022-11-10T16:09:07.471Z,4.00
2022-11-10T16:11:54.910Z,4.50
2022-11-10T16:14:47.823Z,4.40
2022-11-10T16:17:36.680Z,3.37
2022-11-10T16:20:23.473Z,3.80
2022-11-10T16:23:10.777Z,3.37
2022-11-10T16:25:59.261Z,4.43
2022-11-10T16:28:47.815Z,4.90
2022-11-10T16:31:38.357Z,2.93
2022-11-10T16:34:25.466Z,3.00
2022-11-10T16:37:14.269Z,4.23
2022-11-10T16:40:01.318Z,3.50
2022-11-10T16:42:48.343Z,3.37
2022-11-10T16:45:36.012Z,5.47
2022-11-10T16:48:29.083Z,3.67
2022-11-10T16:51:18.209Z,4.23
2022-11-10T16:54:05.590Z,5.27
2022-11-10T16:56:52.615Z,7.10
2022-11-10T16:59:39.668Z,5.13
2022-11-10T17:02:37.135Z,4.53
2022-11-10T17:05:25.519Z,3.57
2022-11-10T17:08:23.614Z,4.23
2022-11-10T17:11:11.538Z,4.50
2022-11-10T17:13:59.679Z,5.13
2022-11-10T17:16:49.360Z,5.90
2022-11-10T17:19:36.695Z,5.47
2022-11-10T17:22:26.951Z,4.30
2022-11-10T17:25:26.054Z,4.03
2022-11-10T17:28:15.824Z,4.37
2022-11-10T17:31:03.300Z,3.80
2022-11-10T17:33:50.818Z,7.20
2022-11-10T17:36:38.381Z,3.40
2022-11-10T17:39:26.485Z,4.60
2022-11-10T17:42:15.335Z,3.30
2022-11-10T17:45:02.393Z,3.53
2022-11-10T17:47:50.380Z,5.27
2022-11-10T17:50:40.143Z,4.80
2022-11-10T17:53:29.438Z,3.57
2022-11-10T17:56:18.814Z,4.50
2022-11-10T17:59:06.270Z,2.63
2022-11-10T18:01:53.636Z,3.43
2022-11-10T18:04:40.864Z,3.67
2022-11-10T18:07:28.234Z,3.40
2022-11-10T18:10:16.075Z,3.83
2022-11-10T18:13:04.573Z,3.00
2022-11-10T18:15:54.606Z,3.37
2022-11-10T18:18:42.613Z,3.63
2022-11-10T18:21:29.977Z,3.00
2022-11-10T18:24:17.806Z,2.37
2022-11-10T18:27:05.238Z,2.60
2022-11-10T18:29:54.599Z,3.30
2022-11-10T18:32:41.821Z,2.50
2022-11-10T18:35:29.150Z,2.33
2022-11-10T18:38:16.354Z,3.00
2022-11-10T18:41:26.690Z,2.93
2022-11-10T18:44:13.726Z,2.70
2022-11-10T18:47:02.188Z,2.63
2022-11-10T18:49:49.296Z,2.97
2022-11-10T18:52:36.518Z,2.10
2022-11-10T18:55:23.528Z,4.50
2022-11-10T18:58:12.120Z,2.60
2022-11-10T19:01:04.828Z,3.37
2022-11-10T19:03:55.728Z,2.10
2022-11-10T19:06:45.700Z,3.77
2022-11-10T19:09:33.222Z,2.63
2022-11-10T19:12:26.281Z,3.00
2022-11-10T19:15:13.946Z,3.43
2022-11-10T19:18:01.584Z,3.80
2022-11-10T19:20:49.943Z,3.63
2022-11-10T19:23:39.714Z,3.50
2022-11-10T19:26:29.166Z,3.73
2022-11-10T19:29:17.271Z,3.20
2022-11-10T19:32:05.504Z,4.90
2022-11-10T19:34:52.834Z,3.57
2022-11-10T19:37:41.858Z,4.40
2022-11-10T19:40:29.951Z,4.10
2022-11-10T19:43:17.257Z,4.13
2022-11-10T19:46:06.439Z,3.83
2022-11-10T19:48:54.636Z,3.33
2022-11-10T19:51:42.357Z,3.67
2022-11-10T19:54:31.732Z,4.10
2022-11-10T19:57:19.398Z,5.13
2022-11-10T20:00:09.058Z,4.73
2022-11-10T20:06:25.929Z,2.90
2022-11-10T20:09:13.348Z,4.40
2022-11-10T20:12:35.919Z,5.30
2022-11-10T20:15:40.279Z,3.60
2022-11-10T20:18:46.965Z,3.60
2022-11-10T20:21:34.449Z,3.30
2022-11-10T20:24:52.421Z,4.30
2022-11-10T20:27:50.650Z,3.83
2022-11-10T20:31:49.570Z,4.03
2022-11-10T20:34:40.102Z,3.57
2022-11-10T20:37:28.509Z,3.47
2022-11-10T20:40:42.901Z,4.10
2022-11-10T20:47:57.146Z,3.93
2022-11-10T20:50:46.673Z,3.60
2022-11-10T20:53:55.349Z,3.23
2022-11-10T20:56:54.059Z,4.10
2022-11-10T21:03:25.680Z,3.33
2022-11-10T21:06:50.998Z,3.60
2022-11-10T21:09:38.988Z,3.13
2022-11-10T21:12:54.277Z,3.97
2022-11-10T21:16:01.309Z,2.87
2022-11-10T21:19:28.469Z,3.63
2022-11-10T21:22:31.816Z,2.97
2022-11-10T21:25:20.668Z,3.87
2022-11-10T21:29:13.704Z,4.37
2022-11-10T21:32:11.655Z,3.17
2022-11-10T21:35:03.991Z,3.70
2022-11-10T21:41:17.087Z,3.20
2022-11-10T21:45:19.247Z,3.17
2022-11-10T21:48:21.830Z,4.53
2022-11-10T21:51:16.371Z,4.13
2022-11-10T21:54:15.320Z,3.23
2022-11-10T21:57:24.377Z,3.43
2022-11-10T22:00:17.911Z,4.23
2022-11-10T22:03:38.235Z,2.70
2022-11-10T22:07:26.507Z,2.80
2022-11-10T22:10:31.291Z,3.13
2022-11-10T22:14:46.134Z,3.40
2022-11-10T22:18:03.754Z,2.60
2022-11-10T22:21:00.458Z,2.10
2022-11-10T22:24:17.112Z,3.30
2022-11-10T22:27:20.374Z,2.60
2022-11-10T22:30:13.039Z,2.77
2022-11-10T22:33:39.175Z,2.83
2022-11-10T22:36:31.651Z,3.73
2022-11-10T22:39:19.407Z,3.67
2022-11-10T22:42:36.452Z,2.53
2022-11-10T22:49:28.848Z,3.17
2022-11-10T22:52:18.275Z,3.40
2022-11-10T22:55:06.121Z,2.77
2022-11-10T22:57:54.064Z,4.03
2022-11-10T23:00:41.095Z,3.70
2022-11-10T23:03:28.663Z,4.20
2022-11-10T23:06:16.379Z,3.00
2022-11-10T23:09:05.524Z,3.10
2022-11-10T23:11:52.839Z,2.93
2022-11-10T23:14:40.021Z,3.30
2022-11-10T23:17:27.496Z,3.80
2022-11-10T23:20:15.123Z,3.17
2022-11-10T23:23:02.584Z,4.03
2022-11-10T23:26:00.209Z,2.73
2022-11-10T23:28:48.557Z,3.23
2022-11-10T23:31:35.562Z,3.60
2022-11-10T23:34:22.709Z,3.10
2022-11-10T23:37:10.263Z,3.60
2022-11-10T23:39:57.746Z,2.50
2022-11-10T23:42:46.784Z,4.17
2022-11-10T23:46:04.852Z,3.70
2022-11-10T23:48:42.213Z,4.20
2022-11-10T23:51:29.646Z,2.97
2022-11-10T23:54:16.619Z,3.60
2022-11-10T23:57:03.855Z,3.77
2022-11-10T23:59:53.341Z,3.70
